Denver, Colorado
Traffic Map
Current Weather Conditions
Denver, Colorado
Broken Clouds
Broken Clouds
-12°
Feels Like: -17°
Wind Chill: -17° Ceiling: 4500
Heat Index: -12° Visibility: 10mi
Dew Point: -15° Wind: 6mph
Humidity: 79% Direction: 350° (N)
Pressure: 29.97in Gusts: 0mph
Raw Report DataKBJC 202150Z 35005KT 10SM SCT010 BKN045 M12/M15 A2997
Traffic Incident Summary
Active as of:
Severity:
Category:
InformationThere was an issue retrieving the traffic information for this location. Please try a different location or try again shortly.
Advertisements